sensor_id;sensor_type;location;lat;lon;timestamp;pressure;altitude;pressure_sealevel;temperature;humidity
70900;BME280;67902;52.154;5.430;2023-04-06T00:02:20;101919.16;;;3.57;71.68
70900;BME280;67902;52.154;5.430;2023-04-06T00:04:47;101915.81;;;3.55;72.18
70900;BME280;67902;52.154;5.430;2023-04-06T00:07:13;101913.34;;;3.54;71.78
70900;BME280;67902;52.154;5.430;2023-04-06T00:09:40;101912.16;;;3.56;71.35
70900;BME280;67902;52.154;5.430;2023-04-06T00:12:06;101904.28;;;3.55;71.40
70900;BME280;67902;52.154;5.430;2023-04-06T00:14:32;101901.94;;;3.51;70.78
70900;BME280;67902;52.154;5.430;2023-04-06T00:16:59;101901.13;;;3.43;71.76
70900;BME280;67902;52.154;5.430;2023-04-06T00:19:26;101909.03;;;3.36;71.30
70900;BME280;67902;52.154;5.430;2023-04-06T00:21:52;101904.50;;;3.29;72.02
70900;BME280;67902;52.154;5.430;2023-04-06T00:24:19;101901.00;;;3.20;72.08
70900;BME280;67902;52.154;5.430;2023-04-06T00:26:45;101898.84;;;3.16;72.63
70900;BME280;67902;52.154;5.430;2023-04-06T00:29:12;101897.84;;;3.17;72.80
70900;BME280;67902;52.154;5.430;2023-04-06T00:31:38;101893.50;;;3.16;72.37
70900;BME280;67902;52.154;5.430;2023-04-06T00:34:05;101885.31;;;3.09;72.85
70900;BME280;67902;52.154;5.430;2023-04-06T00:36:32;101889.84;;;3.09;73.01
70900;BME280;67902;52.154;5.430;2023-04-06T00:38:58;101882.16;;;3.06;73.02
70900;BME280;67902;52.154;5.430;2023-04-06T00:41:25;101882.66;;;3.01;73.51
70900;BME280;67902;52.154;5.430;2023-04-06T00:43:53;101879.47;;;2.98;73.43
70900;BME280;67902;52.154;5.430;2023-04-06T00:46:19;101875.63;;;2.92;74.49
70900;BME280;67902;52.154;5.430;2023-04-06T00:48:46;101872.63;;;2.87;73.11
70900;BME280;67902;52.154;5.430;2023-04-06T00:51:12;101869.97;;;2.79;73.58
70900;BME280;67902;52.154;5.430;2023-04-06T00:53:39;101863.94;;;2.77;74.23
70900;BME280;67902;52.154;5.430;2023-04-06T00:56:06;101861.94;;;2.71;73.96
70900;BME280;67902;52.154;5.430;2023-04-06T00:58:33;101858.44;;;2.70;73.81
70900;BME280;67902;52.154;5.430;2023-04-06T01:00:59;101853.41;;;2.67;73.86
70900;BME280;67902;52.154;5.430;2023-04-06T01:03:26;101857.78;;;2.68;73.01
70900;BME280;67902;52.154;5.430;2023-04-06T01:05:53;101858.94;;;2.66;73.72
70900;BME280;67902;52.154;5.430;2023-04-06T01:08:24;101852.44;;;2.68;73.97
70900;BME280;67902;52.154;5.430;2023-04-06T01:10:51;101848.56;;;2.71;74.13
70900;BME280;67902;52.154;5.430;2023-04-06T01:13:17;101848.91;;;2.68;74.19
70900;BME280;67902;52.154;5.430;2023-04-06T01:15:44;101839.72;;;2.62;73.21
70900;BME280;67902;52.154;5.430;2023-04-06T01:18:11;101843.22;;;2.63;73.66
70900;BME280;67902;52.154;5.430;2023-04-06T01:20:38;101842.91;;;2.66;73.95
70900;BME280;67902;52.154;5.430;2023-04-06T01:23:04;101834.69;;;2.67;74.11
70900;BME280;67902;52.154;5.430;2023-04-06T01:25:31;101837.88;;;2.63;73.71
70900;BME280;67902;52.154;5.430;2023-04-06T01:27:57;101836.53;;;2.59;73.87
70900;BME280;67902;52.154;5.430;2023-04-06T01:30:24;101829.88;;;2.63;73.72
70900;BME280;67902;52.154;5.430;2023-04-06T01:32:50;101830.19;;;2.68;74.97
70900;BME280;67902;52.154;5.430;2023-04-06T01:35:18;101832.34;;;2.72;74.42
70900;BME280;67902;52.154;5.430;2023-04-06T01:37:45;101822.66;;;2.79;74.97
70900;BME280;67902;52.154;5.430;2023-04-06T01:40:11;101814.81;;;2.86;74.31
70900;BME280;67902;52.154;5.430;2023-04-06T01:42:39;101823.50;;;2.80;73.64
70900;BME280;67902;52.154;5.430;2023-04-06T01:45:06;101814.78;;;2.78;73.84
70900;BME280;67902;52.154;5.430;2023-04-06T01:47:33;101817.66;;;2.76;74.09
70900;BME280;67902;52.154;5.430;2023-04-06T01:49:59;101809.31;;;2.71;74.30
70900;BME280;67902;52.154;5.430;2023-04-06T01:52:26;101801.59;;;2.76;75.02
70900;BME280;67902;52.154;5.430;2023-04-06T01:54:52;101801.44;;;2.86;75.06
70900;BME280;67902;52.154;5.430;2023-04-06T01:57:19;101802.75;;;2.90;75.30
70900;BME280;67902;52.154;5.430;2023-04-06T01:59:46;101796.91;;;2.95;75.32
70900;BME280;67902;52.154;5.430;2023-04-06T02:02:12;101796.31;;;3.15;74.41
70900;BME280;67902;52.154;5.430;2023-04-06T02:04:39;101794.53;;;3.46;71.59
70900;BME280;67902;52.154;5.430;2023-04-06T02:07:05;101785.91;;;3.67;70.04
70900;BME280;67902;52.154;5.430;2023-04-06T02:09:32;101790.19;;;3.76;69.42
70900;BME280;67902;52.154;5.430;2023-04-06T02:11:58;101777.22;;;3.88;69.61
70900;BME280;67902;52.154;5.430;2023-04-06T02:14:25;101776.88;;;3.91;68.80
70900;BME280;67902;52.154;5.430;2023-04-06T02:16:52;101779.50;;;3.99;68.61
70900;BME280;67902;52.154;5.430;2023-04-06T02:19:19;101775.16;;;3.98;69.37
70900;BME280;67902;52.154;5.430;2023-04-06T02:21:45;101769.53;;;3.85;69.29
70900;BME280;67902;52.154;5.430;2023-04-06T02:24:12;101767.97;;;3.98;68.24
70900;BME280;67902;52.154;5.430;2023-04-06T02:26:38;101762.34;;;4.08;67.26
70900;BME280;67902;52.154;5.430;2023-04-06T02:29:05;101766.28;;;4.20;65.86
70900;BME280;67902;52.154;5.430;2023-04-06T02:31:32;101764.03;;;4.32;65.55
70900;BME280;67902;52.154;5.430;2023-04-06T02:33:58;101757.09;;;4.37;65.06
70900;BME280;67902;52.154;5.430;2023-04-06T02:36:25;101770.59;;;4.44;65.01
70900;BME280;67902;52.154;5.430;2023-04-06T02:38:52;101767.19;;;4.50;63.93
70900;BME280;67902;52.154;5.430;2023-04-06T02:41:18;101756.09;;;4.53;63.93
70900;BME280;67902;52.154;5.430;2023-04-06T02:43:45;101764.34;;;4.51;64.92
70900;BME280;67902;52.154;5.430;2023-04-06T02:46:11;101759.63;;;4.53;64.59
70900;BME280;67902;52.154;5.430;2023-04-06T02:48:37;101745.94;;;4.48;65.09
70900;BME280;67902;52.154;5.430;2023-04-06T02:51:04;101745.47;;;4.45;64.09
70900;BME280;67902;52.154;5.430;2023-04-06T02:53:30;101748.97;;;4.45;66.10
70900;BME280;67902;52.154;5.430;2023-04-06T02:55:57;101745.34;;;4.38;65.51
70900;BME280;67902;52.154;5.430;2023-04-06T02:58:23;101741.84;;;4.38;65.76
70900;BME280;67902;52.154;5.430;2023-04-06T03:00:50;101742.31;;;4.41;64.41
70900;BME280;67902;52.154;5.430;2023-04-06T03:03:16;101737.97;;;4.40;63.77
70900;BME280;67902;52.154;5.430;2023-04-06T03:05:43;101733.72;;;4.46;63.64
70900;BME280;67902;52.154;5.430;2023-04-06T03:08:09;101723.44;;;4.49;63.10
70900;BME280;67902;52.154;5.430;2023-04-06T03:10:35;101729.56;;;4.58;63.04
70900;BME280;67902;52.154;5.430;2023-04-06T03:13:02;101728.69;;;4.65;63.29
70900;BME280;67902;52.154;5.430;2023-04-06T03:15:29;101732.00;;;4.67;63.27
70900;BME280;67902;52.154;5.430;2023-04-06T03:17:55;101721.84;;;4.63;62.84
70900;BME280;67902;52.154;5.430;2023-04-06T03:20:25;101724.97;;;4.66;62.74
70900;BME280;67902;52.154;5.430;2023-04-06T03:22:51;101723.31;;;4.65;62.80
70900;BME280;67902;52.154;5.430;2023-04-06T03:25:18;101719.59;;;4.66;62.47
70900;BME280;67902;52.154;5.430;2023-04-06T03:27:44;101722.63;;;4.63;62.41
70900;BME280;67902;52.154;5.430;2023-04-06T03:30:11;101723.47;;;4.64;62.84
70900;BME280;67902;52.154;5.430;2023-04-06T03:32:37;101718.75;;;4.66;63.12
70900;BME280;67902;52.154;5.430;2023-04-06T03:35:04;101717.59;;;4.68;65.35
70900;BME280;67902;52.154;5.430;2023-04-06T03:37:31;101716.53;;;4.69;65.57
70900;BME280;67902;52.154;5.430;2023-04-06T03:39:57;101717.59;;;4.68;63.64
70900;BME280;67902;52.154;5.430;2023-04-06T03:42:23;101715.53;;;4.71;64.66
70900;BME280;67902;52.154;5.430;2023-04-06T03:44:50;101708.97;;;4.73;64.34
70900;BME280;67902;52.154;5.430;2023-04-06T03:47:16;101709.34;;;4.70;63.66
70900;BME280;67902;52.154;5.430;2023-04-06T03:49:43;101702.41;;;4.76;63.33
70900;BME280;67902;52.154;5.430;2023-04-06T03:52:09;101702.13;;;4.71;63.18
70900;BME280;67902;52.154;5.430;2023-04-06T03:54:35;101698.13;;;4.66;64.05
70900;BME280;67902;52.154;5.430;2023-04-06T03:57:03;101699.16;;;4.65;63.71
70900;BME280;67902;52.154;5.430;2023-04-06T03:59:30;101702.09;;;4.56;64.25
70900;BME280;67902;52.154;5.430;2023-04-06T04:01:56;101697.44;;;4.35;66.43
70900;BME280;67902;52.154;5.430;2023-04-06T04:04:23;101696.25;;;4.23;67.01
70900;BME280;67902;52.154;5.430;2023-04-06T04:06:49;101700.28;;;4.19;66.96
70900;BME280;67902;52.154;5.430;2023-04-06T04:09:16;101696.59;;;4.20;67.96
70900;BME280;67902;52.154;5.430;2023-04-06T04:11:42;101695.53;;;4.29;65.97
70900;BME280;67902;52.154;5.430;2023-04-06T04:14:09;101698.56;;;4.41;65.53
70900;BME280;67902;52.154;5.430;2023-04-06T04:16:35;101693.78;;;4.51;64.42
70900;BME280;67902;52.154;5.430;2023-04-06T04:19:02;101693.22;;;4.55;64.10
70900;BME280;67902;52.154;5.430;2023-04-06T04:21:29;101690.19;;;4.58;63.22
70900;BME280;67902;52.154;5.430;2023-04-06T04:23:56;101696.84;;;4.62;63.51
70900;BME280;67902;52.154;5.430;2023-04-06T04:26:23;101693.50;;;4.60;62.79
70900;BME280;67902;52.154;5.430;2023-04-06T04:28:49;101691.84;;;4.59;63.02
70900;BME280;67902;52.154;5.430;2023-04-06T04:31:16;101700.19;;;4.64;62.58
70900;BME280;67902;52.154;5.430;2023-04-06T04:33:44;101693.13;;;4.63;62.65
70900;BME280;67902;52.154;5.430;2023-04-06T04:36:11;101696.00;;;4.62;62.32
70900;BME280;67902;52.154;5.430;2023-04-06T04:38:37;101691.84;;;4.59;62.43
70900;BME280;67902;52.154;5.430;2023-04-06T04:41:04;101702.75;;;4.58;62.56
70900;BME280;67902;52.154;5.430;2023-04-06T04:43:30;101699.91;;;4.59;62.47
70900;BME280;67902;52.154;5.430;2023-04-06T04:45:58;101696.38;;;4.59;62.49
70900;BME280;67902;52.154;5.430;2023-04-06T04:48:25;101694.91;;;4.56;62.63
70900;BME280;67902;52.154;5.430;2023-04-06T04:50:52;101694.06;;;4.56;62.71
70900;BME280;67902;52.154;5.430;2023-04-06T04:53:18;101695.28;;;4.53;62.83
70900;BME280;67902;52.154;5.430;2023-04-06T04:55:45;101692.94;;;4.50;62.85
70900;BME280;67902;52.154;5.430;2023-04-06T04:58:11;101688.16;;;4.46;62.78
70900;BME280;67902;52.154;5.430;2023-04-06T05:00:47;101697.00;;;4.46;63.65
70900;BME280;67902;52.154;5.430;2023-04-06T05:03:20;101691.63;;;4.46;62.93
70900;BME280;67902;52.154;5.430;2023-04-06T05:05:48;101685.09;;;4.49;62.98
70900;BME280;67902;52.154;5.430;2023-04-06T05:08:15;101686.09;;;4.48;62.83
70900;BME280;67902;52.154;5.430;2023-04-06T05:10:42;101686.75;;;4.50;62.83
70900;BME280;67902;52.154;5.430;2023-04-06T07:58:53;101632.00;;;7.18;62.89
70900;BME280;67902;52.154;5.430;2023-04-06T08:17:34;101640.97;;;7.58;59.65
70900;BME280;67902;52.154;5.430;2023-04-06T08:37:24;101640.63;;;7.87;60.87
70900;BME280;67902;52.154;5.430;2023-04-06T10:52:45;101634.75;;;9.58;73.79
70900;BME280;67902;52.154;5.430;2023-04-06T10:55:14;101627.31;;;9.47;71.74
70900;BME280;67902;52.154;5.430;2023-04-06T10:57:41;101642.38;;;9.29;73.17
70900;BME280;67902;52.154;5.430;2023-04-06T11:00:08;101631.66;;;9.16;75.13
70900;BME280;67902;52.154;5.430;2023-04-06T11:02:37;101631.31;;;9.06;75.06
70900;BME280;67902;52.154;5.430;2023-04-06T11:05:04;101622.19;;;8.94;76.42
70900;BME280;67902;52.154;5.430;2023-04-06T11:07:32;101639.84;;;8.90;77.20
70900;BME280;67902;52.154;5.430;2023-04-06T11:09:59;101622.25;;;8.81;78.52
70900;BME280;67902;52.154;5.430;2023-04-06T11:12:42;101627.44;;;8.76;78.29
70900;BME280;67902;52.154;5.430;2023-04-06T11:15:09;101632.88;;;8.69;79.83
70900;BME280;67902;52.154;5.430;2023-04-06T11:17:36;101628.31;;;8.70;80.25
70900;BME280;67902;52.154;5.430;2023-04-06T11:20:04;101626.88;;;8.61;80.74
70900;BME280;67902;52.154;5.430;2023-04-06T11:22:31;101628.09;;;8.65;82.12
70900;BME280;67902;52.154;5.430;2023-04-06T11:25:07;101627.91;;;8.60;81.46
70900;BME280;67902;52.154;5.430;2023-04-06T11:27:39;101614.84;;;8.57;82.36
70900;BME280;67902;52.154;5.430;2023-04-06T11:30:07;101623.53;;;8.59;82.28
70900;BME280;67902;52.154;5.430;2023-04-06T11:32:40;101618.56;;;8.62;81.54
70900;BME280;67902;52.154;5.430;2023-04-06T11:35:19;101613.34;;;8.67;82.57
70900;BME280;67902;52.154;5.430;2023-04-06T11:37:46;101613.75;;;8.71;81.62
70900;BME280;67902;52.154;5.430;2023-04-06T11:40:14;101607.75;;;8.69;81.49
70900;BME280;67902;52.154;5.430;2023-04-06T11:42:40;101626.84;;;8.67;81.26
70900;BME280;67902;52.154;5.430;2023-04-06T11:45:07;101615.66;;;8.64;83.50
70900;BME280;67902;52.154;5.430;2023-04-06T11:47:36;101603.19;;;8.63;84.36
70900;BME280;67902;52.154;5.430;2023-04-06T11:50:10;101606.97;;;8.55;82.05
70900;BME280;67902;52.154;5.430;2023-04-06T11:52:39;101594.50;;;8.48;83.35
70900;BME280;67902;52.154;5.430;2023-04-06T11:55:17;101595.34;;;8.55;82.18
70900;BME280;67902;52.154;5.430;2023-04-06T11:57:44;101588.69;;;8.57;83.03
70900;BME280;67902;52.154;5.430;2023-04-06T12:00:11;101585.31;;;8.62;83.67
70900;BME280;67902;52.154;5.430;2023-04-06T12:02:39;101610.88;;;8.66;82.79
70900;BME280;67902;52.154;5.430;2023-04-06T12:05:06;101600.31;;;8.58;82.05
70900;BME280;67902;52.154;5.430;2023-04-06T12:07:33;101583.28;;;8.64;83.81
70900;BME280;67902;52.154;5.430;2023-04-06T12:10:01;101586.09;;;8.82;82.50
70900;BME280;67902;52.154;5.430;2023-04-06T12:12:28;101593.59;;;8.80;82.16
70900;BME280;67902;52.154;5.430;2023-04-06T12:14:55;101586.75;;;8.78;81.99
70900;BME280;67902;52.154;5.430;2023-04-06T12:17:22;101586.13;;;8.76;83.29
70900;BME280;67902;52.154;5.430;2023-04-06T12:19:49;101594.66;;;8.72;81.55
70900;BME280;67902;52.154;5.430;2023-04-06T12:22:16;101593.59;;;8.73;82.28
70900;BME280;67902;52.154;5.430;2023-04-06T12:24:42;101578.84;;;8.76;81.64
70900;BME280;67902;52.154;5.430;2023-04-06T12:27:08;101575.75;;;8.72;82.72
70900;BME280;67902;52.154;5.430;2023-04-06T12:29:40;101573.50;;;8.63;81.43
70900;BME280;67902;52.154;5.430;2023-04-06T12:32:06;101578.72;;;8.58;82.28
70900;BME280;67902;52.154;5.430;2023-04-06T12:34:33;101573.75;;;8.55;84.04
70900;BME280;67902;52.154;5.430;2023-04-06T12:36:59;101561.91;;;8.49;84.31
70900;BME280;67902;52.154;5.430;2023-04-06T12:39:27;101570.03;;;8.49;84.21
70900;BME280;67902;52.154;5.430;2023-04-06T12:41:53;101568.56;;;8.47;84.94
70900;BME280;67902;52.154;5.430;2023-04-06T12:44:20;101568.16;;;8.37;84.53
70900;BME280;67902;52.154;5.430;2023-04-06T12:46:46;101563.41;;;8.39;85.75
70900;BME280;67902;52.154;5.430;2023-04-06T12:49:13;101573.78;;;8.35;84.24
70900;BME280;67902;52.154;5.430;2023-04-06T12:51:39;101562.59;;;8.32;84.51
70900;BME280;67902;52.154;5.430;2023-04-06T12:54:06;101559.91;;;8.25;85.03
70900;BME280;67902;52.154;5.430;2023-04-06T12:56:32;101562.59;;;8.25;85.23
70900;BME280;67902;52.154;5.430;2023-04-06T12:58:59;101552.22;;;8.22;84.38
70900;BME280;67902;52.154;5.430;2023-04-06T13:01:25;101560.91;;;8.24;84.46
70900;BME280;67902;52.154;5.430;2023-04-06T13:03:55;101551.56;;;8.27;85.23
70900;BME280;67902;52.154;5.430;2023-04-06T13:06:22;101548.69;;;8.28;84.27
70900;BME280;67902;52.154;5.430;2023-04-06T13:08:49;101537.69;;;8.30;85.34
70900;BME280;67902;52.154;5.430;2023-04-06T13:11:16;101540.41;;;8.30;84.91
70900;BME280;67902;52.154;5.430;2023-04-06T13:13:42;101542.06;;;8.31;85.80
70900;BME280;67902;52.154;5.430;2023-04-06T13:16:09;101536.44;;;8.32;85.88
70900;BME280;67902;52.154;5.430;2023-04-06T13:18:36;101537.28;;;8.33;85.69
70900;BME280;67902;52.154;5.430;2023-04-06T13:21:05;101541.22;;;8.30;86.46
70900;BME280;67902;52.154;5.430;2023-04-06T13:23:33;101538.50;;;8.24;86.23
70900;BME280;67902;52.154;5.430;2023-04-06T13:26:00;101527.31;;;8.20;86.39
70900;BME280;67902;52.154;5.430;2023-04-06T13:28:27;101535.63;;;8.18;87.00
70900;BME280;67902;52.154;5.430;2023-04-06T13:30:54;101524.41;;;8.15;86.46
70900;BME280;67902;52.154;5.430;2023-04-06T13:33:22;101527.75;;;8.10;86.88
70900;BME280;67902;52.154;5.430;2023-04-06T13:35:48;101525.66;;;8.06;86.61
70900;BME280;67902;52.154;5.430;2023-04-06T13:38:15;101516.13;;;8.03;86.23
70900;BME280;67902;52.154;5.430;2023-04-06T13:40:42;101522.16;;;8.05;87.13
70900;BME280;67902;52.154;5.430;2023-04-06T13:43:09;101519.47;;;8.05;86.04
70900;BME280;67902;52.154;5.430;2023-04-06T13:45:36;101522.78;;;8.01;87.34
70900;BME280;67902;52.154;5.430;2023-04-06T13:48:03;101519.47;;;7.99;88.15
70900;BME280;67902;52.154;5.430;2023-04-06T13:50:29;101523.63;;;7.95;88.19
70900;BME280;67902;52.154;5.430;2023-04-06T13:52:56;101514.09;;;7.92;87.69
70900;BME280;67902;52.154;5.430;2023-04-06T13:55:22;101519.47;;;7.92;88.09
70900;BME280;67902;52.154;5.430;2023-04-06T13:57:52;101511.81;;;7.89;87.89
70900;BME280;67902;52.154;5.430;2023-04-06T14:00:19;101509.75;;;7.85;89.23
70900;BME280;67902;52.154;5.430;2023-04-06T14:02:45;101515.34;;;7.83;88.41
70900;BME280;67902;52.154;5.430;2023-04-06T14:05:12;101502.69;;;7.84;89.05
70900;BME280;67902;52.154;5.430;2023-04-06T14:07:38;101515.34;;;7.83;89.51
70900;BME280;67902;52.154;5.430;2023-04-06T14:10:05;101507.25;;;7.83;88.90
70900;BME280;67902;52.154;5.430;2023-04-06T14:12:41;101494.59;;;7.84;90.22
70900;BME280;67902;52.154;5.430;2023-04-06T14:15:08;101500.41;;;7.81;89.81
70900;BME280;67902;52.154;5.430;2023-04-06T14:17:35;101497.94;;;7.79;89.93
70900;BME280;67902;52.154;5.430;2023-04-06T14:20:02;101488.38;;;7.83;89.94
70900;BME280;67902;52.154;5.430;2023-04-06T14:22:28;101492.97;;;7.83;90.04
70900;BME280;67902;52.154;5.430;2023-04-06T14:24:56;101493.75;;;7.83;90.18
70900;BME280;67902;52.154;5.430;2023-04-06T14:27:23;101495.66;;;7.83;89.38
70900;BME280;67902;52.154;5.430;2023-04-06T14:29:50;101493.38;;;7.80;90.01
70900;BME280;67902;52.154;5.430;2023-04-06T14:32:16;101489.25;;;7.77;90.57
70900;BME280;67902;52.154;5.430;2023-04-06T14:34:43;101494.63;;;7.77;90.84
70900;BME280;67902;52.154;5.430;2023-04-06T14:37:10;101496.28;;;7.78;89.94
70900;BME280;67902;52.154;5.430;2023-04-06T14:39:37;101490.50;;;7.75;91.25
70900;BME280;67902;52.154;5.430;2023-04-06T14:42:03;101490.06;;;7.71;90.41
70900;BME280;67902;52.154;5.430;2023-04-06T14:44:33;101480.94;;;7.72;91.54
70900;BME280;67902;52.154;5.430;2023-04-06T14:46:59;101485.91;;;7.75;91.05
70900;BME280;67902;52.154;5.430;2023-04-06T14:49:26;101475.53;;;7.72;91.13
70900;BME280;67902;52.154;5.430;2023-04-06T14:51:52;101486.72;;;7.69;91.47
70900;BME280;67902;52.154;5.430;2023-04-06T14:56:54;101482.41;;;7.62;91.53
70900;BME280;67902;52.154;5.430;2023-04-06T14:59:20;101482.63;;;7.60;92.31
70900;BME280;67902;52.154;5.430;2023-04-06T15:01:47;101470.59;;;7.56;91.43
70900;BME280;67902;52.154;5.430;2023-04-06T15:04:13;101467.28;;;7.54;91.38
70900;BME280;67902;52.154;5.430;2023-04-06T15:06:40;101475.16;;;7.55;91.35
70900;BME280;67902;52.154;5.430;2023-04-06T15:09:07;101464.38;;;7.55;91.06
70900;BME280;67902;52.154;5.430;2023-04-06T15:11:33;101474.13;;;7.56;91.84
70900;BME280;67902;52.154;5.430;2023-04-06T15:14:00;101461.06;;;7.53;92.07
70900;BME280;67902;52.154;5.430;2023-04-06T15:16:26;101460.88;;;7.55;91.99
70900;BME280;67902;52.154;5.430;2023-04-06T15:18:53;101452.78;;;7.55;92.64
70900;BME280;67902;52.154;5.430;2023-04-06T15:21:19;101449.63;;;7.58;92.58
70900;BME280;67902;52.154;5.430;2023-04-06T15:23:46;101454.63;;;7.61;92.49
70900;BME280;67902;52.154;5.430;2023-04-06T15:26:13;101473.06;;;7.64;92.80
70900;BME280;67902;52.154;5.430;2023-04-06T15:28:40;101450.66;;;7.64;93.27
70900;BME280;67902;52.154;5.430;2023-04-06T15:31:17;101457.13;;;7.63;92.84
70900;BME280;67902;52.154;5.430;2023-04-06T15:33:47;101449.88;;;7.63;93.60
70900;BME280;67902;52.154;5.430;2023-04-06T15:36:32;101448.81;;;7.64;93.30
70900;BME280;67902;52.154;5.430;2023-04-06T15:38:58;101439.88;;;7.64;93.15
70900;BME280;67902;52.154;5.430;2023-04-06T15:41:25;101445.50;;;7.62;93.45
70900;BME280;67902;52.154;5.430;2023-04-06T15:43:52;101444.06;;;7.59;93.87
70900;BME280;67902;52.154;5.430;2023-04-06T15:46:20;101436.63;;;7.55;94.24
70900;BME280;67902;52.154;5.430;2023-04-06T15:51:22;101435.78;;;7.54;94.71
70900;BME280;67902;52.154;5.430;2023-04-06T15:53:49;101438.47;;;7.54;93.96
70900;BME280;67902;52.154;5.430;2023-04-06T15:56:16;101433.50;;;7.51;94.70
70900;BME280;67902;52.154;5.430;2023-04-06T15:58:42;101443.63;;;7.49;94.62
70900;BME280;67902;52.154;5.430;2023-04-06T16:01:17;101436.59;;;7.48;95.21
70900;BME280;67902;52.154;5.430;2023-04-06T16:03:43;101437.44;;;7.49;94.16
70900;BME280;67902;52.154;5.430;2023-04-06T16:06:11;101435.78;;;7.48;95.12
70900;BME280;67902;52.154;5.430;2023-04-06T16:08:38;101433.50;;;7.45;94.97
70900;BME280;67902;52.154;5.430;2023-04-06T16:11:05;101438.88;;;7.45;94.84
70900;BME280;67902;52.154;5.430;2023-04-06T16:13:32;101430.19;;;7.43;95.04
70900;BME280;67902;52.154;5.430;2023-04-06T16:15:58;101441.38;;;7.40;95.51
70900;BME280;67902;52.154;5.430;2023-04-06T16:18:25;101444.06;;;7.40;95.49
70900;BME280;67902;52.154;5.430;2023-04-06T16:20:52;101439.72;;;7.39;96.01
70900;BME280;67902;52.154;5.430;2023-04-06T16:47:31;101419.63;;;7.35;96.57
70900;BME280;67902;52.154;5.430;2023-04-06T16:49:58;101421.28;;;7.36;96.26
70900;BME280;67902;52.154;5.430;2023-04-06T16:52:44;101415.88;;;7.36;96.49
70900;BME280;67902;52.154;5.430;2023-04-06T16:55:10;101411.13;;;7.38;96.72
70900;BME280;67902;52.154;5.430;2023-04-06T16:57:37;101400.13;;;7.39;96.86
70900;BME280;67902;52.154;5.430;2023-04-06T17:00:05;101417.13;;;7.40;97.01
70900;BME280;67902;52.154;5.430;2023-04-06T17:02:33;101409.06;;;7.40;96.22
70900;BME280;67902;52.154;5.430;2023-04-06T17:05:02;101424.19;;;7.41;96.64
70900;BME280;67902;52.154;5.430;2023-04-06T17:07:29;101404.69;;;7.39;96.60
70900;BME280;67902;52.154;5.430;2023-04-06T17:09:59;101407.38;;;7.39;96.49
70900;BME280;67902;52.154;5.430;2023-04-06T17:12:27;101409.88;;;7.40;96.51
70900;BME280;67902;52.154;5.430;2023-04-06T17:14:54;101410.72;;;7.41;96.54
70900;BME280;67902;52.154;5.430;2023-04-06T17:17:20;101406.38;;;7.40;96.81
70900;BME280;67902;52.154;5.430;2023-04-06T17:19:47;101411.75;;;7.40;96.61
70900;BME280;67902;52.154;5.430;2023-04-06T17:22:13;101410.06;;;7.39;97.15
70900;BME280;67902;52.154;5.430;2023-04-06T17:24:46;101403.84;;;7.38;97.20
70900;BME280;67902;52.154;5.430;2023-04-06T17:27:13;101404.69;;;7.39;97.12
70900;BME280;67902;52.154;5.430;2023-04-06T17:29:40;101400.38;;;7.38;96.71
70900;BME280;67902;52.154;5.430;2023-04-06T17:32:07;101408.22;;;7.39;96.58
70900;BME280;67902;52.154;5.430;2023-04-06T17:34:33;101412.78;;;7.39;96.83
70900;BME280;67902;52.154;5.430;2023-04-06T17:37:00;101409.06;;;7.40;97.06
70900;BME280;67902;52.154;5.430;2023-04-06T17:39:27;101410.91;;;7.39;97.39
70900;BME280;67902;52.154;5.430;2023-04-06T17:41:53;101410.91;;;7.39;97.25
70900;BME280;67902;52.154;5.430;2023-04-06T17:44:20;101416.31;;;7.39;97.29
70900;BME280;67902;52.154;5.430;2023-04-06T17:46:46;101413.59;;;7.39;97.68
70900;BME280;67902;52.154;5.430;2023-04-06T17:49:13;101418.16;;;7.39;97.31
70900;BME280;67902;52.154;5.430;2023-04-06T17:51:39;101416.53;;;7.38;97.00
70900;BME280;67902;52.154;5.430;2023-04-06T17:54:05;101421.69;;;7.39;97.38
70900;BME280;67902;52.154;5.430;2023-04-06T17:56:32;101416.53;;;7.38;97.20
70900;BME280;67902;52.154;5.430;2023-04-06T17:58:58;101415.47;;;7.39;97.51
70900;BME280;67902;52.154;5.430;2023-04-06T18:01:25;101409.47;;;7.37;97.16
70900;BME280;67902;52.154;5.430;2023-04-06T18:03:51;101427.31;;;7.38;97.28
70900;BME280;67902;52.154;5.430;2023-04-06T18:06:18;101413.00;;;7.37;97.25
70900;BME280;67902;52.154;5.430;2023-04-06T18:08:45;101420.84;;;7.39;97.15
70900;BME280;67902;52.154;5.430;2023-04-06T18:11:18;101424.59;;;7.38;97.57
70900;BME280;67902;52.154;5.430;2023-04-06T18:13:46;101425.41;;;7.38;97.73
70900;BME280;67902;52.154;5.430;2023-04-06T18:16:13;101418.16;;;7.39;97.60
70900;BME280;67902;52.154;5.430;2023-04-06T18:18:42;101418.16;;;7.39;97.21
70900;BME280;67902;52.154;5.430;2023-04-06T18:21:09;101416.31;;;7.39;97.87
70900;BME280;67902;52.154;5.430;2023-04-06T18:23:35;101411.13;;;7.38;98.12
70900;BME280;67902;52.154;5.430;2023-04-06T18:26:04;101415.47;;;7.39;97.70
70900;BME280;67902;52.154;5.430;2023-04-06T18:28:31;101412.78;;;7.39;97.62
70900;BME280;67902;52.154;5.430;2023-04-06T18:30:58;101420.84;;;7.39;97.80
70900;BME280;67902;52.154;5.430;2023-04-06T18:33:25;101418.16;;;7.39;97.80
70900;BME280;67902;52.154;5.430;2023-04-06T18:35:54;101421.69;;;7.39;97.60
70900;BME280;67902;52.154;5.430;2023-04-06T18:38:25;101422.53;;;7.40;97.85
70900;BME280;67902;52.154;5.430;2023-04-06T18:40:51;101432.47;;;7.39;98.25
70900;BME280;67902;52.154;5.430;2023-04-06T18:43:18;101424.38;;;7.39;98.45
70900;BME280;67902;52.154;5.430;2023-04-06T18:45:44;101422.53;;;7.40;98.16
70900;BME280;67902;52.154;5.430;2023-04-06T18:48:11;101426.88;;;7.41;98.56
70900;BME280;67902;52.154;5.430;2023-04-06T18:50:38;101434.97;;;7.41;98.02
70900;BME280;67902;52.154;5.430;2023-04-06T18:53:05;101433.06;;;7.41;98.01
70900;BME280;67902;52.154;5.430;2023-04-06T18:55:32;101432.06;;;7.42;98.08
70900;BME280;67902;52.154;5.430;2023-04-06T18:57:59;101437.22;;;7.44;98.30
70900;BME280;67902;52.154;5.430;2023-04-06T19:00:25;101432.88;;;7.43;97.95
70900;BME280;67902;52.154;5.430;2023-04-06T19:02:52;101429.13;;;7.44;98.39